Time;durP1;ratioP1;P1;durP2;ratioP2;P2;SDS_P1;SDS_P2;PMS_P1;PMS_P2;Temp;Humidity;BMP_temperature;BMP_pressure;BME280_temperature;BME280_humidity;BME280_pressure;Samples;Min_cycle;Max_cycle;Signal;HPM_P1;HPM_P2
2022/06/24 00:01:41;;;;;;;2.97;2.20;;;18.20;99.90;;;;;;6058488;23;20449;-81
2022/06/24 00:04:08;;;;;;;3.80;2.20;;;18.10;99.90;;;;;;6057891;23;20447;-81
2022/06/24 00:06:45;;;;;;;3.50;2.50;;;18.10;99.90;;;;;;6044678;23;20527;-81
2022/06/24 00:09:15;;;;;;;3.20;2.17;;;18.20;99.90;;;;;;6043860;23;20518;-81
2022/06/24 00:11:43;;;;;;;3.87;2.27;;;18.30;99.90;;;;;;6039669;23;20534;-81
2022/06/24 00:14:11;;;;;;;4.30;2.30;;;18.30;99.90;;;;;;6049967;23;20455;-81
2022/06/24 00:16:56;;;;;;;2.60;2.00;;;18.30;99.90;;;;;;6055320;23;20497;-81
2022/06/24 00:19:23;;;;;;;4.30;2.03;;;18.30;99.90;;;;;;6058168;23;20522;-81
2022/06/24 00:22:01;;;;;;;2.87;2.03;;;18.30;99.90;;;;;;6050354;23;20535;-81
2022/06/24 00:24:34;;;;;;;3.70;2.17;;;18.30;99.90;;;;;;6057217;23;20446;-81
2022/06/24 00:27:01;;;;;;;3.33;2.23;;;18.30;99.90;;;;;;6058601;23;20471;-81
2022/06/24 00:29:30;;;;;;;7.50;2.33;;;18.30;99.90;;;;;;6053971;23;20474;-80
2022/06/24 00:32:02;;;;;;;3.57;2.40;;;18.30;99.90;;;;;;6050355;23;20471;-80
2022/06/24 00:34:29;;;;;;;3.97;2.27;;;18.30;99.90;;;;;;6055178;23;20440;-80
2022/06/24 00:36:56;;;;;;;4.13;2.47;;;18.30;99.90;;;;;;6057611;23;20534;-81
2022/06/24 00:39:34;;;;;;;3.10;2.17;;;18.20;99.90;;;;;;6065830;23;20436;-81
2022/06/24 00:42:02;;;;;;;4.63;2.20;;;18.30;99.90;;;;;;6055706;23;20494;-80
2022/06/24 00:44:41;;;;;;;4.97;3.23;;;18.30;99.90;;;;;;6076789;23;20454;-81
2022/06/24 00:47:09;;;;;;;3.07;2.70;;;18.30;99.90;;;;;;6077050;23;21262;-80
2022/06/24 00:49:37;;;;;;;4.60;2.20;;;18.30;99.90;;;;;;6083195;23;20450;-80
2022/06/24 00:52:07;;;;;;;3.33;2.83;;;18.30;99.90;;;;;;6055610;23;20538;-81
2022/06/24 00:54:36;;;;;;;5.37;2.30;;;18.30;99.90;;;;;;6080607;23;20431;-80
2022/06/24 00:57:04;;;;;;;3.80;2.83;;;18.40;99.90;;;;;;6070145;23;20491;-82
2022/06/24 00:59:34;;;;;;;3.90;2.67;;;18.40;99.90;;;;;;6087597;23;20446;-81
2022/06/24 01:02:06;;;;;;;4.63;2.80;;;18.40;99.90;;;;;;6058997;23;20478;-81
2022/06/24 01:04:34;;;;;;;4.63;2.87;;;18.40;99.90;;;;;;6048115;23;20542;-81
2022/06/24 01:07:02;;;;;;;3.90;2.90;;;18.40;99.90;;;;;;6053629;23;20464;-81
2022/06/24 01:09:29;;;;;;;3.53;2.70;;;18.40;99.90;;;;;;6073895;23;20811;-79
2022/06/24 01:11:57;;;;;;;3.50;2.90;;;18.40;99.90;;;;;;6059347;23;20997;-81
2022/06/24 01:14:24;;;;;;;3.97;3.10;;;18.40;99.90;;;;;;6054471;23;20474;-82
2022/06/24 01:16:51;;;;;;;3.90;3.00;;;18.40;99.90;;;;;;6056061;23;20443;-82
2022/06/24 01:19:19;;;;;;;5.63;3.87;;;18.30;99.90;;;;;;6051197;23;20472;-82
2022/06/24 01:21:49;;;;;;;3.93;2.80;;;18.30;99.90;;;;;;6061343;23;20463;-81
2022/06/24 01:24:18;;;;;;;5.90;3.43;;;18.30;99.90;;;;;;6056607;23;20443;-80
2022/06/24 01:26:47;;;;;;;4.13;3.13;;;18.20;99.90;;;;;;6054575;23;20969;-81
2022/06/24 01:29:15;;;;;;;3.33;3.03;;;18.20;99.90;;;;;;6045913;23;20435;-81
2022/06/24 01:31:43;;;;;;;5.40;3.80;;;18.20;99.90;;;;;;6042360;23;20547;-81
2022/06/24 01:34:11;;;;;;;3.93;3.40;;;18.10;99.90;;;;;;6049693;23;20939;-81
2022/06/24 01:36:39;;;;;;;4.73;3.90;;;18.10;99.90;;;;;;6050401;23;20950;-80
2022/06/24 01:39:08;;;;;;;3.67;3.37;;;18.10;99.90;;;;;;6056171;23;20474;-81
2022/06/24 01:41:36;;;;;;;5.50;4.30;;;18.10;99.90;;;;;;6070746;22;20990;-80
2022/06/24 01:44:03;;;;;;;7.47;5.13;;;18.10;99.90;;;;;;6060883;23;20451;-81
2022/06/24 01:46:31;;;;;;;5.40;4.90;;;18.00;99.90;;;;;;6069062;23;20467;-81
2022/06/24 01:48:58;;;;;;;4.53;4.07;;;18.00;99.90;;;;;;6060208;23;20490;-80
2022/06/24 01:51:27;;;;;;;5.33;4.67;;;18.00;99.90;;;;;;6059750;23;20544;-80
2022/06/24 01:53:53;;;;;;;7.10;5.67;;;18.00;99.90;;;;;;6061347;23;20447;-80
2022/06/24 01:56:22;;;;;;;8.13;6.93;;;18.00;99.90;;;;;;6061970;23;20443;-80
2022/06/24 01:58:49;;;;;;;6.77;6.17;;;17.90;99.90;;;;;;6058056;23;20452;-81
2022/06/24 02:01:16;;;;;;;8.37;7.10;;;17.90;99.90;;;;;;6058808;23;20823;-81
2022/06/24 02:03:43;;;;;;;8.97;6.47;;;17.90;99.90;;;;;;6060390;23;21006;-81
2022/06/24 02:06:12;;;;;;;6.87;6.17;;;17.90;99.90;;;;;;6059965;23;20524;-80
2022/06/24 02:08:40;;;;;;;6.63;5.67;;;17.90;99.90;;;;;;6058760;23;20443;-81
2022/06/24 02:13:57;;;;;;;7.67;6.27;;;17.90;99.90;;;;;;6059200;23;20474;-80
2022/06/24 02:16:25;;;;;;;6.50;5.70;;;17.90;99.90;;;;;;6065269;23;20455;-80
2022/06/24 02:18:53;;;;;;;8.07;5.20;;;17.90;99.90;;;;;;6058408;23;20448;-80
2022/06/24 02:21:22;;;;;;;9.00;4.63;;;17.90;99.90;;;;;;6061372;23;21005;-79
2022/06/24 02:23:49;;;;;;;6.00;4.83;;;17.80;99.90;;;;;;6061148;23;20442;-80
2022/06/24 02:26:16;;;;;;;9.00;4.47;;;17.80;99.90;;;;;;6058101;23;20474;-80
2022/06/24 02:28:43;;;;;;;6.60;3.80;;;17.80;99.90;;;;;;6057405;23;20949;-79
2022/06/24 02:31:12;;;;;;;5.60;4.50;;;17.80;99.90;;;;;;6059629;23;20439;-79
2022/06/24 02:33:40;;;;;;;4.67;4.20;;;17.80;99.90;;;;;;6059580;23;20447;-80
2022/06/24 02:36:07;;;;;;;4.90;4.23;;;17.70;99.90;;;;;;6065652;23;20447;-80
2022/06/24 02:38:35;;;;;;;5.40;4.67;;;17.70;99.90;;;;;;6060710;23;20470;-79
2022/06/24 02:41:02;;;;;;;6.90;4.83;;;17.60;99.90;;;;;;6059795;23;20462;-80
2022/06/24 02:43:32;;;;;;;7.70;4.17;;;17.60;99.90;;;;;;6059600;23;20450;-80
2022/06/24 02:46:01;;;;;;;8.10;4.73;;;17.60;99.90;;;;;;6061138;23;20443;-80
2022/06/24 02:48:32;;;;;;;6.10;4.23;;;17.60;99.90;;;;;;6058154;23;20443;-80
2022/06/24 02:51:01;;;;;;;5.70;4.40;;;17.60;99.90;;;;;;6062161;23;20465;-79
2022/06/24 02:53:30;;;;;;;7.67;5.20;;;17.50;99.90;;;;;;6061671;23;20439;-80
2022/06/24 02:55:58;;;;;;;7.60;5.57;;;17.50;99.90;;;;;;6057505;23;20538;-80
2022/06/24 02:58:25;;;;;;;8.00;5.40;;;17.50;99.90;;;;;;6060755;23;20848;-80
2022/06/24 03:00:53;;;;;;;5.83;4.80;;;17.50;99.90;;;;;;6053560;23;20447;-79
2022/06/24 03:03:21;;;;;;;6.90;5.30;;;17.40;99.90;;;;;;6058928;23;20474;-79
2022/06/24 03:05:51;;;;;;;6.23;5.13;;;17.40;99.90;;;;;;6056428;23;20444;-79
2022/06/24 03:08:20;;;;;;;9.53;6.77;;;17.40;99.90;;;;;;6060906;23;20873;-79
2022/06/24 03:10:47;;;;;;;7.20;6.10;;;17.40;99.90;;;;;;6057539;23;20450;-79
2022/06/24 03:13:14;;;;;;;7.33;6.30;;;17.30;99.90;;;;;;6060689;23;20455;-79
2022/06/24 03:15:43;;;;;;;5.87;5.27;;;17.30;99.90;;;;;;6052802;23;20470;-80
2022/06/24 03:18:11;;;;;;;5.37;4.90;;;17.30;99.90;;;;;;6056376;23;20992;-80
2022/06/24 03:20:38;;;;;;;5.33;4.80;;;17.30;99.90;;;;;;6055922;23;20931;-80
2022/06/24 03:23:07;;;;;;;8.17;4.90;;;17.30;99.90;;;;;;6060448;23;20554;-80
2022/06/24 03:25:34;;;;;;;6.53;5.10;;;17.30;99.90;;;;;;6063383;23;20447;-80
2022/06/24 03:28:04;;;;;;;6.50;5.03;;;17.30;99.90;;;;;;6059216;23;21108;-80
2022/06/24 03:30:32;;;;;;;7.50;5.53;;;17.30;99.90;;;;;;6060235;23;20526;-80
2022/06/24 03:32:59;;;;;;;4.97;4.40;;;17.30;99.90;;;;;;6059446;23;20467;-80
2022/06/24 03:35:26;;;;;;;5.33;4.40;;;17.30;99.90;;;;;;6059522;23;20440;-80
2022/06/24 03:37:53;;;;;;;6.40;4.40;;;17.20;99.90;;;;;;6060876;23;20554;-79
2022/06/24 03:40:22;;;;;;;4.83;4.00;;;17.30;99.90;;;;;;6060112;23;20451;-80
2022/06/24 03:42:49;;;;;;;6.33;4.33;;;17.30;99.90;;;;;;6060491;23;20466;-80
2022/06/24 03:45:16;;;;;;;5.50;4.20;;;17.30;99.90;;;;;;6054209;23;20558;-80
2022/06/24 03:47:43;;;;;;;5.53;4.60;;;17.30;99.90;;;;;;6060047;23;20974;-80
2022/06/24 03:50:10;;;;;;;5.70;3.63;;;17.40;99.90;;;;;;6061255;23;20443;-80
2022/06/24 03:52:37;;;;;;;5.47;4.27;;;17.40;99.90;;;;;;6059283;23;20463;-80
2022/06/24 03:55:05;;;;;;;5.27;4.13;;;17.40;99.90;;;;;;6058695;23;20459;-80
2022/06/24 03:57:33;;;;;;;5.40;4.40;;;17.50;99.90;;;;;;6060545;23;20449;-80
2022/06/24 04:00:00;;;;;;;6.03;4.50;;;17.50;99.90;;;;;;6061191;23;20443;-80
2022/06/24 04:02:27;;;;;;;5.03;4.23;;;17.50;99.90;;;;;;6059488;23;20463;-80
2022/06/24 04:04:54;;;;;;;5.20;4.10;;;17.60;99.90;;;;;;6060284;23;20443;-80
2022/06/24 04:07:22;;;;;;;8.13;4.30;;;17.50;99.90;;;;;;6059320;23;20582;-82
2022/06/24 04:09:49;;;;;;;4.50;4.03;;;17.50;99.90;;;;;;6055316;23;20959;-82
2022/06/24 04:12:16;;;;;;;5.60;4.20;;;17.60;99.90;;;;;;6058489;23;20500;-81
2022/06/24 04:17:29;;;;;;;5.87;4.83;;;17.60;99.90;;;;;;6061002;23;20454;-82
2022/06/24 04:19:56;;;;;;;7.23;4.53;;;17.60;99.90;;;;;;6055765;23;20800;-80
2022/06/24 04:22:23;;;;;;;6.00;4.80;;;17.60;99.90;;;;;;6054529;23;20458;-81
2022/06/24 04:24:50;;;;;;;5.00;4.30;;;17.60;99.90;;;;;;6059546;23;20466;-81
2022/06/24 04:27:18;;;;;;;5.60;3.77;;;17.60;99.90;;;;;;6056724;23;20569;-81
2022/06/24 04:29:46;;;;;;;6.00;4.07;;;17.70;99.90;;;;;;6059643;23;20526;-82
2022/06/24 04:32:13;;;;;;;5.73;5.07;;;17.70;99.90;;;;;;6053579;23;20935;-81
2022/06/24 04:34:40;;;;;;;5.17;3.90;;;17.70;99.90;;;;;;6051587;23;20497;-78
2022/06/24 04:37:07;;;;;;;5.80;4.30;;;17.80;99.90;;;;;;6057010;23;20507;-77
2022/06/24 04:39:34;;;;;;;10.57;4.93;;;17.80;99.90;;;;;;6060317;23;20955;-80
2022/06/24 04:42:01;;;;;;;7.67;3.90;;;17.80;99.90;;;;;;6059440;23;20459;-77
2022/06/24 04:44:28;;;;;;;8.00;4.37;;;17.80;99.90;;;;;;6059473;23;20432;-76
2022/06/24 04:46:57;;;;;;;8.50;4.87;;;17.90;99.90;;;;;;6059186;23;20431;-76
2022/06/24 04:49:24;;;;;;;4.57;4.17;;;18.00;99.90;;;;;;6059322;23;20792;-76
2022/06/24 04:51:51;;;;;;;6.63;4.60;;;18.00;99.90;;;;;;6060188;23;20459;-76
2022/06/24 04:54:18;;;;;;;6.47;4.90;;;18.00;99.90;;;;;;6058835;23;20435;-76
2022/06/24 04:56:45;;;;;;;6.93;4.20;;;18.10;99.90;;;;;;6055939;23;20439;-77
2022/06/24 04:59:12;;;;;;;5.00;4.50;;;18.10;99.90;;;;;;6058279;23;20941;-77
2022/06/24 05:01:39;;;;;;;6.90;4.40;;;18.10;99.90;;;;;;6060613;23;20471;-78
2022/06/24 05:04:07;;;;;;;7.30;4.00;;;18.20;99.90;;;;;;6061773;23;20447;-77
2022/06/24 05:06:34;;;;;;;5.57;4.57;;;18.30;99.90;;;;;;6058880;23;20443;-77
2022/06/24 05:09:01;;;;;;;5.10;4.30;;;18.30;99.90;;;;;;6059144;23;20554;-77
2022/06/24 05:11:28;;;;;;;6.73;4.50;;;18.40;99.90;;;;;;6054651;23;20463;-78
2022/06/24 05:13:55;;;;;;;5.10;4.00;;;18.40;99.90;;;;;;6057907;23;20431;-78
2022/06/24 05:16:22;;;;;;;5.90;4.30;;;18.50;99.90;;;;;;6059085;23;20455;-80
2022/06/24 05:18:49;;;;;;;6.30;4.53;;;18.50;99.90;;;;;;6047493;23;20443;-76
2022/06/24 05:21:17;;;;;;;6.80;4.67;;;18.60;99.90;;;;;;6060612;23;20466;-77
2022/06/24 05:23:44;;;;;;;7.07;4.67;;;18.70;99.90;;;;;;6057930;23;20783;-77
2022/06/24 05:26:11;;;;;;;6.97;5.13;;;18.70;99.90;;;;;;6059251;23;20435;-77
2022/06/24 05:28:38;;;;;;;6.57;4.50;;;18.80;99.90;;;;;;6058189;23;20475;-78
2022/06/24 05:31:06;;;;;;;8.00;4.50;;;18.90;99.90;;;;;;6042421;23;20945;-78
2022/06/24 05:33:34;;;;;;;4.50;4.00;;;19.00;99.90;;;;;;6058439;23;20447;-79
2022/06/24 05:36:01;;;;;;;5.97;4.27;;;19.10;99.90;;;;;;6053834;23;20451;-79
2022/06/24 05:38:29;;;;;;;5.20;3.10;;;19.30;99.90;;;;;;6048238;23;20470;-79
2022/06/24 05:40:56;;;;;;;4.97;3.73;;;19.20;99.90;;;;;;6053205;23;20545;-79
2022/06/24 05:43:24;;;;;;;6.90;3.97;;;19.40;99.90;;;;;;6056664;23;20554;-79
2022/06/24 05:45:51;;;;;;;6.40;3.30;;;19.50;99.90;;;;;;6053760;23;20436;-79
2022/06/24 05:48:18;;;;;;;5.13;3.70;;;19.60;99.90;;;;;;6056008;23;20916;-79
2022/06/24 05:50:45;;;;;;;7.40;3.70;;;19.80;99.90;;;;;;6058607;23;20458;-79
2022/06/24 05:56:00;;;;;;;4.10;3.10;;;20.00;99.90;;;;;;6057577;23;20516;-79
2022/06/24 05:58:27;;;;;;;5.23;4.23;;;20.20;99.90;;;;;;6060490;23;20992;-79
2022/06/24 06:00:55;;;;;;;6.00;3.00;;;20.30;99.90;;;;;;6055975;23;20461;-79
2022/06/24 06:03:22;;;;;;;6.67;3.13;;;20.40;99.90;;;;;;6058082;23;20961;-79
2022/06/24 06:05:49;;;;;;;6.27;3.27;;;20.50;99.90;;;;;;6058416;23;20444;-79
2022/06/24 06:08:17;;;;;;;5.80;2.80;;;20.40;99.90;;;;;;6059295;23;20958;-80
2022/06/24 06:10:44;;;;;;;5.33;3.50;;;20.50;99.90;;;;;;6055056;23;20455;-80
2022/06/24 06:13:13;;;;;;;6.23;3.03;;;20.60;99.90;;;;;;6058809;23;20447;-80
2022/06/24 06:15:42;;;;;;;4.77;3.00;;;20.70;99.90;;;;;;6057868;23;20518;-79
2022/06/24 06:18:09;;;;;;;6.00;3.07;;;20.80;99.90;;;;;;6056175;23;20526;-83
2022/06/24 06:20:36;;;;;;;5.50;3.00;;;20.90;99.90;;;;;;6054851;23;20459;-78
2022/06/24 06:23:04;;;;;;;5.43;3.00;;;21.00;99.90;;;;;;6053944;23;20879;-78
2022/06/24 06:25:31;;;;;;;4.03;2.90;;;21.00;99.90;;;;;;6057509;23;20444;-78
2022/06/24 06:27:58;;;;;;;4.07;2.80;;;21.00;99.90;;;;;;6056932;23;20511;-79
2022/06/24 06:30:27;;;;;;;6.03;3.60;;;21.10;99.90;;;;;;6062068;23;20464;-78
2022/06/24 06:32:54;;;;;;;4.90;3.27;;;21.30;99.90;;;;;;6059505;23;20946;-78
2022/06/24 06:35:21;;;;;;;4.07;2.97;;;21.40;99.90;;;;;;6050931;23;20443;-79
2022/06/24 06:37:48;;;;;;;4.90;2.63;;;21.50;99.90;;;;;;6055443;23;20435;-79
2022/06/24 06:40:15;;;;;;;4.90;2.70;;;21.50;99.90;;;;;;6058354;23;20812;-78
2022/06/24 06:42:42;;;;;;;4.30;2.70;;;21.50;99.90;;;;;;6059710;23;20443;-79
2022/06/24 06:45:10;;;;;;;6.23;2.53;;;21.60;99.90;;;;;;6051899;23;20454;-78
2022/06/24 06:47:38;;;;;;;4.93;2.70;;;21.80;99.90;;;;;;6053237;23;20470;-79
2022/06/24 06:50:07;;;;;;;6.13;2.57;;;22.00;99.90;;;;;;6055639;23;20486;-78
2022/06/24 06:52:33;;;;;;;3.67;2.70;;;22.10;99.90;;;;;;6055484;23;20470;-79
2022/06/24 06:55:02;;;;;;;4.47;3.20;;;22.30;99.90;;;;;;6057578;23;20435;-77
2022/06/24 06:57:29;;;;;;;6.97;2.60;;;22.40;99.90;;;;;;6057602;23;20439;-79
2022/06/24 06:59:56;;;;;;;3.30;2.63;;;22.30;99.90;;;;;;6056529;23;20522;-78
2022/06/24 07:02:24;;;;;;;4.00;2.70;;;22.30;99.90;;;;;;6054653;23;20843;-78
2022/06/24 07:04:52;;;;;;;5.30;2.90;;;22.40;99.90;;;;;;6051340;23;20461;-78
2022/06/24 07:07:19;;;;;;;3.27;2.30;;;22.40;99.90;;;;;;6056706;23;20945;-79
2022/06/24 07:09:47;;;;;;;5.83;2.43;;;22.50;99.90;;;;;;6054938;23;20466;-78
2022/06/24 07:12:14;;;;;;;5.00;2.77;;;22.50;99.90;;;;;;6048428;23;20478;-78
2022/06/24 07:14:42;;;;;;;5.73;2.77;;;22.50;99.90;;;;;;6051977;23;20527;-79
2022/06/24 07:17:09;;;;;;;9.00;3.20;;;22.60;99.90;;;;;;6059777;23;20501;-78
2022/06/24 07:19:36;;;;;;;3.67;2.40;;;22.80;99.90;;;;;;6057097;23;20457;-78
2022/06/24 07:22:05;;;;;;;6.00;2.90;;;22.90;99.90;;;;;;6052509;23;20451;-78
2022/06/24 07:24:32;;;;;;;4.20;2.37;;;23.00;99.90;;;;;;6055044;23;20965;-78
2022/06/24 07:27:02;;;;;;;3.57;2.47;;;23.10;99.90;;;;;;6053355;23;20467;-78
2022/06/24 07:29:31;;;;;;;2.73;2.37;;;23.10;99.90;;;;;;6054577;23;20468;-78
2022/06/24 07:31:58;;;;;;;2.40;2.13;;;23.10;99.90;;;;;;6056582;23;20456;-78
2022/06/24 07:34:26;;;;;;;8.50;2.97;;;23.00;99.90;;;;;;6055935;23;20466;-78
2022/06/24 07:36:53;;;;;;;4.77;2.70;;;23.00;99.90;;;;;;6054560;23;20447;-78
2022/06/24 07:39:21;;;;;;;3.20;2.50;;;22.90;99.90;;;;;;6053705;23;20819;-78
2022/06/24 07:41:48;;;;;;;4.90;2.60;;;22.70;99.90;;;;;;6055689;23;20471;-78
2022/06/24 07:44:16;;;;;;;4.70;2.60;;;22.60;99.90;;;;;;6055845;23;20843;-78
2022/06/24 07:46:43;;;;;;;3.47;2.10;;;22.60;99.90;;;;;;6054367;23;20875;-78
2022/06/24 07:49:10;;;;;;;6.27;2.67;;;23.00;99.90;;;;;;6051250;23;20451;-78
2022/06/24 07:51:37;;;;;;;3.27;2.33;;;23.50;99.90;;;;;;6052260;23;21028;-78
2022/06/24 07:54:07;;;;;;;4.27;2.50;;;23.70;99.90;;;;;;6056286;23;20535;-78
2022/06/24 07:59:21;;;;;;;4.30;2.43;;;23.40;99.90;;;;;;6056181;23;20505;-78
2022/06/24 08:01:49;;;;;;;5.80;2.90;;;23.30;99.90;;;;;;6056889;23;20568;-77
2022/06/24 08:04:16;;;;;;;4.43;2.83;;;23.40;99.90;;;;;;6049371;23;20867;-78
2022/06/24 08:06:46;;;;;;;4.70;2.27;;;23.40;99.90;;;;;;6055438;23;20729;-78
2022/06/24 08:09:13;;;;;;;3.80;2.50;;;23.40;99.90;;;;;;6051196;23;20471;-78
2022/06/24 08:11:42;;;;;;;6.40;2.60;;;23.50;99.90;;;;;;6056291;23;20455;-78
2022/06/24 08:14:09;;;;;;;4.13;2.47;;;23.60;99.90;;;;;;6055465;23;20478;-77
2022/06/24 08:16:36;;;;;;;3.77;2.30;;;23.60;99.90;;;;;;6049266;23;20523;-78
2022/06/24 08:19:03;;;;;;;3.70;2.50;;;23.90;99.90;;;;;;6053752;23;20431;-77
2022/06/24 08:21:31;;;;;;;3.80;2.20;;;24.70;99.90;;;;;;6055071;23;20550;-78
2022/06/24 08:23:58;;;;;;;5.07;2.47;;;25.40;99.90;;;;;;6057187;23;20799;-77
2022/06/24 08:26:25;;;;;;;3.97;2.47;;;25.90;99.90;;;;;;6050165;23;20951;-78
2022/06/24 08:28:54;;;;;;;3.30;2.23;;;26.20;99.90;;;;;;6051839;23;20482;-78
2022/06/24 08:31:22;;;;;;;5.03;2.30;;;26.50;99.90;;;;;;6051448;23;20575;-78
2022/06/24 08:33:49;;;;;;;3.57;2.30;;;26.40;99.90;;;;;;6052617;23;20569;-78
2022/06/24 08:36:16;;;;;;;2.37;1.83;;;26.20;99.90;;;;;;6057372;23;20823;-78
2022/06/24 08:38:44;;;;;;;4.13;2.50;;;26.60;99.90;;;;;;6052461;23;20493;-79
2022/06/24 08:41:12;;;;;;;4.43;3.10;;;27.50;99.90;;;;;;6051843;23;20459;-81
2022/06/24 08:43:40;;;;;;;6.10;3.60;;;27.90;99.90;;;;;;6052867;23;20446;-79
2022/06/24 08:46:08;;;;;;;4.40;3.07;;;27.70;99.90;;;;;;6049684;23;20437;-78
2022/06/24 08:48:38;;;;;;;6.93;3.23;;;27.20;99.90;;;;;;6057775;23;20468;-81
2022/06/24 08:51:06;;;;;;;4.90;2.80;;;27.00;99.90;;;;;;6059257;23;20459;-79
2022/06/24 08:53:35;;;;;;;8.60;2.83;;;27.10;99.90;;;;;;6058106;23;20519;-78
2022/06/24 08:56:02;;;;;;;6.33;2.80;;;27.50;99.90;;;;;;6053557;23;20555;-79
2022/06/24 08:58:29;;;;;;;6.70;3.30;;;28.10;99.90;;;;;;6056298;23;20474;-79
2022/06/24 09:00:56;;;;;;;5.13;3.27;;;28.80;99.90;;;;;;6051088;23;20489;-79
2022/06/24 09:03:25;;;;;;;3.17;2.40;;;29.20;99.90;;;;;;6057202;23;20435;-78
2022/06/24 09:05:52;;;;;;;3.30;2.50;;;29.60;99.90;;;;;;6055897;23;20958;-79
2022/06/24 09:08:19;;;;;;;3.93;2.63;;;30.30;99.90;;;;;;6059407;23;20489;-79
2022/06/24 09:11:06;;;;;;;4.30;2.77;;;30.50;99.90;;;;;;6057123;23;20467;-79
2022/06/24 09:13:42;;;;;;;5.50;2.80;;;31.00;99.90;;;;;;6057059;23;20545;-79
2022/06/24 09:16:10;;;;;;;3.93;2.40;;;31.70;99.90;;;;;;6056156;23;20481;-79
2022/06/24 09:18:39;;;;;;;3.33;1.90;;;32.50;99.90;;;;;;6055542;23;20923;-79
2022/06/24 09:21:06;;;;;;;3.50;2.53;;;33.10;97.40;;;;;;6057556;23;20494;-81
2022/06/24 09:23:33;;;;;;;4.53;2.40;;;33.60;96.70;;;;;;6059686;23;20938;-80
2022/06/24 09:26:01;;;;;;;2.60;2.40;;;34.20;94.80;;;;;;6048524;23;20436;-79
2022/06/24 09:28:30;;;;;;;3.10;2.13;;;34.60;93.50;;;;;;6057313;23;20431;-79
2022/06/24 09:31:01;;;;;;;4.27;2.70;;;34.90;93.00;;;;;;6059783;23;20458;-80
2022/06/24 09:33:35;;;;;;;2.40;2.10;;;35.50;90.80;;;;;;6057044;23;20443;-79
2022/06/24 09:36:06;;;;;;;4.03;2.03;;;35.50;89.90;;;;;;6056135;23;20436;-78
2022/06/24 09:38:35;;;;;;;4.40;2.57;;;35.80;85.30;;;;;;6056778;23;20447;-79
2022/06/24 09:41:04;;;;;;;2.93;2.40;;;35.90;83.90;;;;;;6058650;23;20994;-78
2022/06/24 09:43:32;;;;;;;3.93;2.63;;;35.00;85.80;;;;;;6055004;23;20457;-78
2022/06/24 09:46:00;;;;;;;4.30;2.50;;;34.80;86.20;;;;;;6055647;23;20435;-78
2022/06/24 09:48:29;;;;;;;3.70;2.00;;;34.70;86.20;;;;;;6059835;23;20435;-78
2022/06/24 09:50:57;;;;;;;3.53;2.30;;;34.60;86.60;;;;;;6055398;23;20838;-78
2022/06/24 09:53:28;;;;;;;6.03;2.90;;;34.20;85.10;;;;;;6055628;23;20516;-78
2022/06/24 09:55:56;;;;;;;5.70;2.27;;;34.00;85.70;;;;;;6056711;23;20471;-77
2022/06/24 09:58:24;;;;;;;3.07;2.30;;;34.30;85.40;;;;;;6057722;23;20464;-77
2022/06/24 10:00:50;;;;;;;5.40;2.37;;;34.00;85.30;;;;;;6054148;23;22052;-80
2022/06/24 10:03:18;;;;;;;3.03;2.00;;;33.50;83.50;;;;;;6055939;23;20431;-77
2022/06/24 10:05:46;;;;;;;3.33;2.27;;;33.40;85.40;;;;;;6057133;23;20863;-79
2022/06/24 10:08:15;;;;;;;3.90;2.30;;;33.50;85.00;;;;;;6056785;23;20439;-77
2022/06/24 10:10:49;;;;;;;4.10;2.27;;;33.90;86.10;;;;;;6055737;23;20478;-77
2022/06/24 10:13:24;;;;;;;4.00;2.60;;;34.30;84.90;;;;;;6057425;23;20499;-78
2022/06/24 10:15:52;;;;;;;3.50;2.10;;;34.00;84.80;;;;;;6057202;23;20984;-78
2022/06/24 10:18:21;;;;;;;5.40;2.70;;;33.90;86.20;;;;;;6061331;23;20439;-78
2022/06/24 10:20:50;;;;;;;4.43;2.27;;;34.10;85.10;;;;;;6060719;23;20835;-77
2022/06/24 11:36:03;;;;;;;2.20;1.67;;;30.00;79.70;;;;;;6148857;23;20400;-79
2022/06/24 11:38:32;;;;;;;2.03;1.83;;;29.60;83.80;;;;;;6123081;23;20201;-82
2022/06/24 11:40:59;;;;;;;1.90;1.63;;;29.40;83.60;;;;;;6098005;23;20468;-81
2022/06/24 11:43:27;;;;;;;2.23;1.60;;;29.30;82.60;;;;;;6098312;23;20437;-81
2022/06/24 11:45:57;;;;;;;2.67;1.70;;;29.20;84.60;;;;;;6096440;23;20501;-82
2022/06/24 11:48:25;;;;;;;2.67;1.80;;;29.30;83.00;;;;;;6085345;23;20516;-82
2022/06/24 11:50:53;;;;;;;2.30;1.60;;;29.30;82.90;;;;;;6076696;23;20456;-84
2022/06/24 11:53:25;;;;;;;1.77;1.50;;;29.40;83.10;;;;;;6107529;23;20467;-83
2022/06/24 11:55:55;;;;;;;2.63;1.40;;;29.90;82.60;;;;;;6092142;23;20453;-84
2022/06/24 11:58:22;;;;;;;2.00;1.80;;;30.50;81.10;;;;;;6096940;23;20442;-84
2022/06/24 12:00:52;;;;;;;1.87;1.77;;;31.20;78.50;;;;;;6092145;23;20486;-84
2022/06/24 12:03:22;;;;;;;1.77;1.40;;;31.80;77.70;;;;;;6087252;23;20454;-83
2022/06/24 12:05:50;;;;;;;2.10;1.43;;;32.60;76.00;;;;;;6098367;23;20442;-83
2022/06/24 12:08:18;;;;;;;1.50;1.40;;;33.00;74.00;;;;;;6105112;23;20437;-83
2022/06/24 12:10:55;;;;;;;1.60;1.30;;;32.80;74.10;;;;;;6100226;23;20503;-83
2022/06/24 12:13:27;;;;;;;1.27;1.10;;;32.80;73.70;;;;;;6084615;23;20487;-79
2022/06/24 12:15:55;;;;;;;1.57;1.33;;;32.30;74.00;;;;;;6095074;23;20530;-79
2022/06/24 12:18:24;;;;;;;1.60;1.50;;;31.90;73.80;;;;;;6107328;23;20448;-78
2022/06/24 12:20:59;;;;;;;1.93;1.53;;;31.30;73.50;;;;;;6097776;23;20465;-78
2022/06/24 12:23:32;;;;;;;1.47;1.37;;;30.90;75.00;;;;;;6100773;23;20916;-77
2022/06/24 12:26:06;;;;;;;2.33;1.50;;;30.60;75.40;;;;;;6099518;23;20489;-78
2022/06/24 12:28:34;;;;;;;1.77;1.40;;;30.50;75.80;;;;;;6108766;23;20546;-77
2022/06/24 12:31:03;;;;;;;1.60;1.50;;;30.60;75.40;;;;;;6097303;23;20442;-78
2022/06/24 12:33:32;;;;;;;1.90;1.80;;;30.50;76.20;;;;;;6099671;23;20426;-77
2022/06/24 12:36:08;;;;;;;1.97;1.60;;;30.30;76.50;;;;;;6107973;23;20449;-77
2022/06/24 12:38:37;;;;;;;2.50;1.77;;;29.70;75.70;;;;;;6098087;23;20438;-78
2022/06/24 12:41:14;;;;;;;1.47;1.37;;;29.10;78.80;;;;;;6102699;23;20456;-78
2022/06/24 12:43:55;;;;;;;2.23;1.67;;;28.50;80.30;;;;;;6101844;23;20472;-78
2022/06/24 12:46:25;;;;;;;1.50;1.40;;;28.30;81.40;;;;;;6102626;23;20442;-78
2022/06/24 12:51:45;;;;;;;1.60;1.50;;;28.30;81.80;;;;;;6097069;23;20437;-78
2022/06/24 12:54:14;;;;;;;1.93;1.60;;;28.40;84.30;;;;;;6091024;23;20453;-78
2022/06/24 12:56:43;;;;;;;1.70;1.40;;;28.40;84.80;;;;;;6088507;23;20430;-77
2022/06/24 12:59:10;;;;;;;2.10;1.70;;;28.50;82.60;;;;;;6089415;23;20529;-78
2022/06/24 13:01:42;;;;;;;2.03;1.60;;;28.60;83.00;;;;;;6089546;23;20517;-77
2022/06/24 13:04:10;;;;;;;2.27;1.70;;;28.80;82.80;;;;;;6093228;23;20507;-77
2022/06/24 13:06:37;;;;;;;1.50;1.40;;;29.00;81.40;;;;;;6097405;23;20451;-78
2022/06/24 13:09:06;;;;;;;2.30;1.37;;;29.30;81.50;;;;;;6096830;23;20465;-77
2022/06/24 13:11:34;;;;;;;3.27;1.83;;;29.50;82.10;;;;;;6096833;23;20475;-79
2022/06/24 13:14:09;;;;;;;1.70;1.60;;;29.20;80.70;;;;;;6094194;23;20457;-78
2022/06/24 13:16:36;;;;;;;1.50;1.37;;;29.10;81.70;;;;;;6085078;23;20537;-78
2022/06/24 13:19:03;;;;;;;1.67;1.40;;;28.90;82.30;;;;;;6086846;23;20457;-79
2022/06/24 13:21:30;;;;;;;1.90;1.60;;;28.70;82.40;;;;;;6094222;23;20434;-78
2022/06/24 13:23:59;;;;;;;2.17;1.47;;;28.50;83.30;;;;;;6094465;23;22280;-79
2022/06/24 13:26:28;;;;;;;3.03;1.77;;;28.40;83.30;;;;;;6092136;23;20517;-80
2022/06/24 13:28:55;;;;;;;2.07;1.87;;;28.30;83.30;;;;;;6093756;23;20454;-78
2022/06/24 13:31:24;;;;;;;1.70;1.57;;;28.50;84.30;;;;;;6097382;23;20434;-79
2022/06/24 13:33:51;;;;;;;1.43;1.33;;;28.60;82.40;;;;;;6102432;23;20512;-79
2022/06/24 13:36:20;;;;;;;2.47;1.30;;;28.80;82.30;;;;;;6100119;23;20467;-80
2022/06/24 13:38:47;;;;;;;3.67;2.10;;;28.90;82.10;;;;;;6094438;23;20454;-78
2022/06/24 13:41:14;;;;;;;1.40;1.30;;;28.90;83.40;;;;;;6103442;23;20459;-78
2022/06/24 13:43:41;;;;;;;1.47;1.37;;;28.70;83.10;;;;;;6098331;23;20453;-77
2022/06/24 13:46:08;;;;;;;1.63;1.53;;;28.70;82.50;;;;;;6096776;23;20446;-76
2022/06/24 13:51:12;;;;;;;1.90;1.70;;;28.40;84.50;;;;;;5078951;22;20525;-78
2022/06/24 13:53:39;;;;;;;2.30;2.17;;;28.10;81.80;;;;;;5005786;28;21020;-78
2022/06/24 13:56:06;;;;;;;4.40;1.83;;;27.40;91.10;;;;;;5006536;28;20481;-79
2022/06/24 13:58:36;;;;;;;3.23;2.37;;;26.70;93.40;;;;;;5005463;28;20469;-77
2022/06/24 14:01:04;;;;;;;3.15;2.00;;;26.00;95.30;;;;;;4979666;28;20468;-76
2022/06/24 14:03:31;;;;;;;2.23;2.00;;;25.20;97.70;;;;;;4992041;28;20238;-77
2022/06/24 14:05:59;;;;;;;2.20;2.10;;;24.60;99.90;;;;;;4988887;28;20478;-76
2022/06/24 14:08:27;;;;;;;2.50;2.30;;;24.30;99.90;;;;;;4989248;28;20454;-77
2022/06/24 14:10:55;;;;;;;2.73;2.00;;;23.90;99.90;;;;;;4987437;28;20561;-76
2022/06/24 14:13:22;;;;;;;2.60;2.20;;;23.70;99.90;;;;;;4991931;28;20568;-76
2022/06/24 14:15:49;;;;;;;3.80;1.93;;;23.50;99.90;;;;;;4980888;28;20487;-76
2022/06/24 14:18:16;;;;;;;2.60;2.30;;;23.50;99.90;;;;;;4987953;28;20767;-76
2022/06/24 14:20:44;;;;;;;2.60;2.40;;;23.40;99.90;;;;;;4983224;28;21136;-76
2022/06/24 14:25:56;;;;;;;3.13;2.13;;;23.10;99.90;;;;;;4989772;28;20453;-76